createdAt,value
2022-11-20T00:01:25.663Z,5.81
2022-11-20T00:03:55.253Z,5.91
2022-11-20T00:06:23.367Z,5.79
2022-11-20T00:08:51.074Z,5.83
2022-11-20T00:11:21.381Z,5.90
2022-11-20T00:13:50.871Z,5.76
2022-11-20T00:16:21.002Z,5.55
2022-11-20T00:18:48.930Z,5.89
2022-11-20T00:21:24.059Z,6.04
2022-11-20T00:23:55.184Z,6.13
2022-11-20T00:26:24.269Z,6.09
2022-11-20T00:28:56.421Z,6.20
2022-11-20T00:31:24.198Z,6.29
2022-11-20T00:33:52.281Z,6.40
2022-11-20T00:36:21.704Z,6.54
2022-11-20T00:38:53.151Z,6.40
2022-11-20T00:41:20.873Z,6.46
2022-11-20T00:43:48.253Z,6.37
2022-11-20T00:46:21.335Z,6.47
2022-11-20T00:48:49.025Z,6.43
2022-11-20T00:51:19.335Z,6.41
2022-11-20T00:53:46.952Z,6.45
2022-11-20T00:56:17.310Z,6.50
2022-11-20T00:58:46.546Z,6.38
2022-11-20T01:01:16.662Z,6.57
2022-11-20T01:03:46.661Z,6.55
2022-11-20T01:06:20.280Z,6.42
2022-11-20T01:08:48.854Z,6.51
2022-11-20T01:11:18.995Z,6.42
2022-11-20T01:13:47.414Z,6.15
2022-11-20T01:16:21.051Z,6.30
2022-11-20T01:18:54.387Z,6.28
2022-11-20T01:21:26.078Z,6.29
2022-11-20T01:23:54.035Z,6.12
2022-11-20T01:26:24.590Z,6.27
2022-11-20T01:28:52.395Z,6.30
2022-11-20T01:31:24.677Z,6.28
2022-11-20T01:33:53.272Z,6.23
2022-11-20T01:36:22.158Z,6.14
2022-11-20T01:38:52.790Z,5.70
2022-11-20T01:41:39.222Z,5.85
2022-11-20T01:44:06.528Z,5.83
2022-11-20T01:46:37.596Z,6.15
2022-11-20T01:49:10.850Z,6.01
2022-11-20T01:52:16.440Z,6.05
2022-11-20T01:54:50.831Z,6.12
2022-11-20T01:57:20.597Z,6.29
2022-11-20T01:59:56.563Z,6.25
2022-11-20T02:02:24.154Z,6.38
2022-11-20T02:04:52.817Z,6.37
2022-11-20T02:07:21.112Z,6.40
2022-11-20T02:09:48.486Z,6.57
2022-11-20T02:12:34.754Z,6.53
2022-11-20T02:15:02.301Z,6.49
2022-11-20T02:17:30.302Z,6.44
2022-11-20T02:19:57.648Z,6.43
2022-11-20T02:22:33.456Z,6.51
2022-11-20T02:25:02.031Z,6.56
2022-11-20T02:27:29.765Z,6.49
2022-11-20T02:30:14.990Z,6.27
2022-11-20T02:32:42.636Z,6.40
2022-11-20T02:35:30.091Z,6.14
2022-11-20T02:37:59.322Z,6.43
2022-11-20T02:40:26.854Z,6.51
2022-11-20T02:42:57.660Z,6.48
2022-11-20T02:45:26.045Z,6.53
2022-11-20T02:47:53.777Z,6.49
2022-11-20T02:50:21.317Z,6.53
2022-11-20T02:52:48.914Z,6.53
2022-11-20T02:55:16.307Z,6.44
2022-11-20T02:57:43.710Z,6.42
2022-11-20T03:00:12.004Z,6.38
2022-11-20T03:02:39.370Z,6.27
2022-11-20T03:05:06.927Z,6.29
2022-11-20T03:07:34.791Z,6.41
2022-11-20T03:10:02.134Z,6.43
2022-11-20T03:12:29.428Z,6.49
2022-11-20T03:14:57.044Z,6.45
2022-11-20T03:17:24.414Z,6.54
2022-11-20T03:19:51.773Z,6.48
2022-11-20T03:22:19.391Z,6.68
2022-11-20T03:24:47.013Z,6.63
2022-11-20T03:27:14.413Z,6.69
2022-11-20T03:29:42.051Z,6.75
2022-11-20T03:32:09.382Z,6.64
2022-11-20T03:34:36.711Z,6.62
2022-11-20T03:37:04.387Z,6.74
2022-11-20T03:39:31.814Z,6.75
2022-11-20T03:41:59.422Z,6.71
2022-11-20T03:44:26.976Z,6.83
2022-11-20T03:46:54.321Z,6.90
2022-11-20T03:49:22.155Z,6.92
2022-11-20T03:51:50.091Z,6.87
2022-11-20T03:54:17.458Z,6.78
2022-11-20T03:56:44.839Z,6.68
2022-11-20T03:59:12.480Z,6.63
2022-11-20T04:01:40.307Z,6.69
2022-11-20T04:04:08.986Z,6.60
2022-11-20T04:06:38.006Z,6.36
2022-11-20T04:09:05.851Z,6.46
2022-11-20T04:11:35.632Z,6.45
2022-11-20T04:14:06.815Z,6.54
2022-11-20T04:16:36.518Z,6.47
2022-11-20T04:19:06.305Z,6.55
2022-11-20T04:21:34.222Z,6.56
2022-11-20T04:24:01.908Z,6.40
2022-11-20T04:26:30.041Z,6.47
2022-11-20T04:28:58.203Z,6.44
2022-11-20T04:31:27.612Z,6.40
2022-11-20T04:33:55.166Z,6.33
2022-11-20T04:36:25.307Z,6.46
2022-11-20T04:39:04.538Z,6.51
2022-11-20T04:41:34.510Z,6.60
2022-11-20T04:44:05.839Z,6.53
2022-11-20T04:46:41.530Z,6.37
2022-11-20T04:49:09.639Z,6.48
2022-11-20T04:51:37.345Z,6.58
2022-11-20T04:54:04.818Z,6.50
2022-11-20T04:56:32.378Z,6.57
2022-11-20T04:59:03.677Z,6.73
2022-11-20T05:01:31.399Z,6.55
2022-11-20T05:03:59.234Z,6.57
2022-11-20T05:06:26.835Z,6.40
2022-11-20T05:08:54.129Z,6.61
2022-11-20T05:11:22.058Z,6.51
2022-11-20T05:13:50.576Z,6.57
2022-11-20T05:16:23.653Z,6.70
2022-11-20T05:18:52.914Z,6.71
2022-11-20T05:21:20.673Z,6.75
2022-11-20T05:23:48.046Z,6.75
2022-11-20T05:26:22.708Z,6.75
2022-11-20T05:28:51.000Z,6.85
2022-11-20T05:31:26.621Z,6.63
2022-11-20T05:33:55.030Z,6.68
2022-11-20T05:36:22.579Z,6.69
2022-11-20T05:38:51.071Z,6.87
2022-11-20T05:41:20.648Z,6.96
2022-11-20T05:43:49.507Z,6.65
2022-11-20T05:46:22.293Z,6.66
2022-11-20T05:48:52.610Z,6.64
2022-11-20T05:51:20.974Z,6.70
2022-11-20T05:53:49.013Z,6.84
2022-11-20T05:56:18.783Z,6.86
2022-11-20T05:58:46.864Z,6.62
2022-11-20T06:01:15.261Z,6.53
2022-11-20T06:03:44.667Z,6.70
2022-11-20T06:06:12.150Z,6.31
2022-11-20T06:08:39.475Z,6.41
2022-11-20T06:11:08.610Z,6.63
2022-11-20T06:13:41.606Z,6.63
2022-11-20T06:16:11.054Z,6.31
2022-11-20T06:18:38.642Z,6.18
2022-11-20T06:21:13.089Z,6.05
2022-11-20T06:23:41.224Z,6.16
2022-11-20T06:26:10.778Z,5.88
2022-11-20T06:28:38.255Z,5.91
2022-11-20T06:31:06.989Z,5.88
2022-11-20T06:33:34.804Z,5.77
2022-11-20T06:36:07.260Z,6.09
2022-11-20T06:38:39.466Z,5.97
2022-11-20T06:41:07.700Z,6.12
2022-11-20T06:43:35.047Z,6.09
2022-11-20T06:46:03.085Z,6.03
2022-11-20T06:48:30.559Z,6.12
2022-11-20T06:50:58.472Z,6.20
2022-11-20T06:53:26.320Z,6.53
2022-11-20T06:55:57.108Z,6.60
2022-11-20T06:58:26.951Z,6.72
2022-11-20T07:00:54.967Z,6.40
2022-11-20T07:03:22.344Z,6.36
2022-11-20T07:05:49.834Z,6.48
2022-11-20T07:08:17.539Z,6.55
2022-11-20T07:10:44.873Z,6.60
2022-11-20T07:13:12.239Z,6.41
2022-11-20T07:15:39.880Z,6.37
2022-11-20T07:18:07.457Z,6.37
2022-11-20T07:20:35.006Z,6.58
2022-11-20T07:23:02.654Z,6.78
2022-11-20T07:25:30.028Z,6.60
2022-11-20T07:28:00.734Z,6.71
2022-11-20T07:30:28.890Z,6.60
2022-11-20T07:32:57.147Z,6.62
2022-11-20T07:35:25.446Z,6.21
2022-11-20T07:37:53.053Z,6.04
2022-11-20T07:40:20.899Z,6.14
2022-11-20T07:42:52.821Z,6.09
2022-11-20T07:45:21.378Z,5.82
2022-11-20T07:47:49.037Z,6.21
2022-11-20T07:50:16.486Z,6.26
2022-11-20T07:52:44.049Z,6.52
2022-11-20T07:55:11.774Z,6.42
2022-11-20T07:57:39.523Z,6.70
2022-11-20T08:00:12.010Z,6.76
2022-11-20T08:02:40.480Z,6.88
2022-11-20T08:05:09.550Z,7.16
2022-11-20T08:07:41.020Z,7.32
2022-11-20T08:10:10.755Z,7.35
2022-11-20T08:13:03.977Z,7.34
2022-11-20T08:15:31.610Z,7.27
2022-11-20T08:18:32.929Z,7.30
2022-11-20T08:21:04.764Z,7.44
2022-11-20T08:23:32.361Z,7.59
2022-11-20T08:25:59.727Z,7.34
2022-11-20T08:28:27.343Z,7.01
2022-11-20T08:30:59.572Z,7.04
2022-11-20T08:33:27.065Z,7.25
2022-11-20T08:35:54.373Z,7.17
2022-11-20T08:38:21.722Z,7.20
2022-11-20T08:41:09.287Z,7.55
2022-11-20T08:43:36.677Z,7.23
2022-11-20T08:46:04.274Z,7.53
2022-11-20T08:48:31.567Z,7.46
2022-11-20T08:51:00.375Z,7.70
2022-11-20T08:53:28.605Z,7.85
2022-11-20T08:55:57.835Z,7.99
2022-11-20T08:58:26.194Z,8.20
2022-11-20T09:00:54.117Z,8.17
2022-11-20T09:03:21.567Z,8.21
2022-11-20T09:05:48.931Z,8.57
2022-11-20T09:08:16.459Z,8.53
2022-11-20T09:10:43.802Z,8.67
2022-11-20T09:13:11.085Z,8.46
2022-11-20T09:15:38.690Z,8.19
2022-11-20T09:18:05.984Z,8.44
2022-11-20T09:20:33.451Z,8.48
2022-11-20T09:23:01.055Z,8.43
2022-11-20T09:25:28.417Z,8.70
2022-11-20T09:27:57.025Z,8.55
2022-11-20T09:30:25.249Z,8.88
2022-11-20T09:32:52.598Z,8.98
2022-11-20T09:35:19.980Z,8.90
2022-11-20T09:37:47.657Z,8.76
2022-11-20T09:40:33.926Z,8.42
2022-11-20T09:43:08.248Z,8.38
2022-11-20T09:45:53.454Z,8.18
2022-11-20T09:48:36.094Z,7.99
2022-11-20T09:51:10.197Z,7.67
2022-11-20T09:53:52.410Z,7.92
2022-11-20T09:56:22.798Z,7.81
2022-11-20T09:58:52.994Z,7.97
2022-11-20T10:01:22.627Z,7.80
2022-11-20T10:04:19.354Z,7.81
2022-11-20T10:07:32.697Z,7.51
2022-11-20T10:10:01.325Z,7.53
2022-11-20T10:12:28.537Z,7.40
2022-11-20T10:15:17.119Z,6.97
2022-11-20T10:18:06.138Z,7.37
2022-11-20T10:20:41.982Z,7.44
2022-11-20T10:23:25.837Z,7.17
2022-11-20T10:26:15.038Z,7.14
2022-11-20T10:29:16.416Z,7.42
2022-11-20T10:31:47.390Z,7.43
2022-11-20T10:34:23.130Z,7.58
2022-11-20T10:36:56.003Z,7.32
2022-11-20T10:39:44.705Z,7.62
2022-11-20T10:42:20.966Z,7.92
2022-11-20T10:45:05.946Z,7.77
2022-11-20T10:47:34.394Z,7.81
2022-11-20T10:50:05.927Z,7.71
2022-11-20T10:53:01.328Z,7.61
2022-11-20T10:55:34.697Z,8.01
2022-11-20T10:58:12.417Z,8.11
2022-11-20T11:00:40.103Z,7.85
2022-11-20T11:03:29.706Z,7.96
2022-11-20T11:06:09.209Z,8.09
2022-11-20T11:08:39.540Z,8.13
2022-11-20T11:11:24.946Z,8.09
2022-11-20T11:13:52.696Z,8.28
2022-11-20T11:16:25.645Z,8.11
2022-11-20T11:19:03.873Z,8.52
2022-11-20T11:21:31.505Z,8.49
2022-11-20T11:24:26.798Z,8.43
2022-11-20T11:27:05.583Z,7.94
2022-11-20T11:29:32.873Z,8.06
2022-11-20T11:32:08.099Z,8.37
2022-11-20T11:34:35.741Z,8.47
2022-11-20T11:37:04.467Z,8.41
2022-11-20T11:39:34.803Z,8.36
2022-11-20T11:42:02.254Z,8.41
2022-11-20T11:44:50.932Z,8.35
2022-11-20T11:47:32.223Z,8.11
2022-11-20T11:50:17.919Z,8.35
2022-11-20T11:52:59.654Z,8.17
2022-11-20T11:55:44.322Z,8.32
2022-11-20T11:58:42.986Z,8.31
2022-11-20T12:01:34.288Z,8.48
2022-11-20T12:04:20.674Z,8.30
2022-11-20T12:06:53.559Z,8.14
2022-11-20T12:09:25.767Z,8.19
2022-11-20T12:12:11.035Z,8.67
2022-11-20T12:14:40.387Z,8.99
2022-11-20T12:17:10.986Z,9.10
2022-11-20T12:19:38.795Z,9.13
2022-11-20T12:22:30.016Z,9.12
2022-11-20T12:25:05.739Z,8.14
2022-11-20T12:28:10.726Z,8.23
2022-11-20T12:30:46.914Z,8.11
2022-11-20T12:33:32.322Z,8.03
2022-11-20T12:36:06.693Z,8.20
2022-11-20T12:38:52.813Z,8.57
2022-11-20T12:41:58.020Z,8.79
2022-11-20T12:45:11.835Z,8.31
2022-11-20T12:47:51.230Z,8.49
2022-11-20T12:50:53.326Z,8.49
2022-11-20T12:53:49.243Z,8.60
2022-11-20T12:56:56.366Z,8.63
2022-11-20T12:59:36.094Z,8.87
2022-11-20T13:02:26.891Z,9.01
2022-11-20T13:05:13.669Z,9.16
2022-11-20T13:07:41.873Z,9.08
2022-11-20T13:10:28.070Z,9.13
2022-11-20T13:12:59.484Z,9.31
2022-11-20T13:15:57.412Z,9.17
2022-11-20T13:18:24.786Z,8.98
2022-11-20T13:20:52.732Z,9.32
2022-11-20T13:23:28.375Z,8.94
2022-11-20T13:26:07.509Z,9.13
2022-11-20T13:28:35.580Z,9.49
2022-11-20T13:31:03.214Z,9.27
2022-11-20T13:33:37.434Z,9.22
2022-11-20T13:36:07.473Z,9.47
2022-11-20T13:38:45.923Z,9.33
2022-11-20T13:41:36.101Z,9.09
2022-11-20T13:44:43.588Z,9.12
2022-11-20T13:47:30.028Z,9.19
2022-11-20T13:49:59.647Z,8.88
2022-11-20T13:53:01.448Z,8.92
2022-11-20T13:55:39.683Z,8.86
2022-11-20T13:58:13.641Z,8.73
2022-11-20T14:00:55.290Z,8.35
2022-11-20T14:03:44.135Z,8.46
2022-11-20T14:06:15.839Z,8.70
2022-11-20T14:08:47.463Z,8.54
2022-11-20T14:11:17.957Z,8.52
2022-11-20T14:13:57.924Z,8.49
2022-11-20T14:16:26.865Z,8.52
2022-11-20T14:18:55.655Z,8.66
2022-11-20T14:21:28.681Z,8.81
2022-11-20T14:24:23.560Z,8.34
2022-11-20T14:26:52.110Z,8.22
2022-11-20T14:29:22.445Z,8.47
2022-11-20T14:31:54.274Z,8.58
2022-11-20T14:34:34.016Z,8.45
2022-11-20T14:37:03.453Z,8.46
2022-11-20T14:39:35.802Z,8.55
2022-11-20T14:42:04.466Z,8.45
2022-11-20T14:44:34.167Z,8.48
2022-11-20T14:47:03.587Z,8.48
2022-11-20T14:49:32.076Z,8.60
2022-11-20T14:52:01.297Z,8.74
2022-11-20T14:54:30.089Z,8.70
2022-11-20T14:57:02.819Z,8.75
2022-11-20T14:59:32.745Z,8.78
2022-11-20T15:02:03.430Z,8.89
2022-11-20T15:04:31.079Z,8.73
2022-11-20T15:07:00.377Z,8.74
2022-11-20T15:09:27.897Z,8.63
2022-11-20T15:11:58.066Z,8.67
2022-11-20T15:14:27.060Z,8.65
2022-11-20T15:16:55.178Z,8.60
2022-11-20T15:19:25.019Z,8.70
2022-11-20T15:21:52.565Z,8.71
2022-11-20T15:24:20.799Z,8.65
2022-11-20T15:26:49.412Z,8.46
2022-11-20T15:29:21.809Z,8.47
2022-11-20T15:31:49.408Z,8.59
2022-11-20T15:34:16.847Z,8.45
2022-11-20T15:36:44.890Z,8.64
2022-11-20T15:39:12.544Z,8.45
2022-11-20T15:41:40.323Z,8.33
2022-11-20T15:44:07.679Z,8.37
2022-11-20T15:46:40.814Z,8.13
2022-11-20T15:49:12.351Z,8.31
2022-11-20T15:51:43.508Z,8.42
2022-11-20T15:54:11.026Z,8.48
2022-11-20T15:56:38.590Z,8.45
2022-11-20T15:59:06.159Z,8.53
2022-11-20T16:01:33.651Z,8.59
2022-11-20T16:04:01.831Z,8.42
2022-11-20T16:06:29.146Z,8.44
2022-11-20T16:08:56.686Z,8.30
2022-11-20T16:11:24.312Z,8.30
2022-11-20T16:14:09.926Z,8.41
2022-11-20T16:16:40.170Z,8.31
2022-11-20T16:19:10.061Z,8.38
2022-11-20T16:21:38.488Z,8.24
2022-11-20T16:24:07.556Z,8.23
2022-11-20T16:26:36.383Z,8.10
2022-11-20T16:29:05.082Z,8.01
2022-11-20T16:31:33.322Z,7.68
2022-11-20T16:34:07.148Z,7.50
2022-11-20T16:36:43.083Z,7.80
2022-11-20T16:39:10.844Z,7.63
2022-11-20T16:41:38.504Z,7.69
2022-11-20T16:44:10.832Z,7.52
2022-11-20T16:46:38.323Z,7.32
2022-11-20T16:49:13.356Z,7.72
2022-11-20T16:51:40.745Z,7.81
2022-11-20T16:54:09.330Z,7.72
2022-11-20T16:56:37.700Z,7.77
2022-11-20T16:59:05.517Z,7.48
2022-11-20T17:01:34.259Z,7.68
2022-11-20T17:04:03.473Z,7.72
2022-11-20T17:06:41.763Z,7.76
2022-11-20T17:09:09.618Z,7.59
2022-11-20T17:11:37.370Z,7.73
2022-11-20T17:14:07.445Z,7.78
2022-11-20T17:16:36.410Z,7.75
2022-11-20T17:19:05.252Z,7.69
2022-11-20T17:21:33.379Z,7.80
2022-11-20T17:24:03.408Z,7.81
2022-11-20T17:26:31.221Z,7.76
2022-11-20T17:29:01.195Z,7.74
2022-11-20T17:31:30.207Z,7.78
2022-11-20T17:33:59.685Z,7.83
2022-11-20T17:36:28.825Z,7.73
2022-11-20T17:38:56.421Z,7.76
2022-11-20T17:41:25.413Z,7.64
2022-11-20T17:43:57.990Z,7.67
2022-11-20T17:46:27.878Z,7.47
2022-11-20T17:48:55.716Z,7.34
2022-11-20T17:51:26.251Z,7.41
2022-11-20T17:53:56.580Z,7.38
2022-11-20T17:56:42.751Z,7.44
2022-11-20T17:59:12.044Z,7.31
2022-11-20T18:01:40.543Z,7.43
2022-11-20T18:04:08.514Z,7.43
2022-11-20T18:06:36.461Z,7.35
2022-11-20T18:09:05.228Z,7.41
2022-11-20T18:11:37.408Z,7.32
2022-11-20T18:14:25.401Z,7.24
2022-11-20T18:16:55.093Z,6.99
2022-11-20T18:19:28.730Z,6.84
2022-11-20T18:22:01.693Z,6.83
2022-11-20T18:24:31.826Z,6.95
2022-11-20T18:26:59.467Z,6.94
2022-11-20T18:29:27.512Z,6.80
2022-11-20T18:31:54.914Z,6.78
2022-11-20T18:34:22.686Z,6.82
2022-11-20T18:36:50.784Z,6.90
2022-11-20T18:39:18.286Z,6.91
2022-11-20T18:42:04.086Z,7.00
2022-11-20T18:44:51.338Z,7.09
2022-11-20T18:47:30.803Z,7.02
2022-11-20T18:50:00.889Z,6.89
2022-11-20T18:52:34.068Z,7.06
2022-11-20T18:55:02.602Z,7.03
2022-11-20T18:57:31.621Z,6.98
2022-11-20T19:00:08.060Z,6.99
2022-11-20T19:02:41.696Z,6.93
2022-11-20T19:05:11.185Z,7.00
2022-11-20T19:07:38.798Z,6.91
2022-11-20T19:10:06.706Z,6.93
2022-11-20T19:12:35.270Z,6.87
2022-11-20T19:15:03.271Z,6.84
2022-11-20T19:17:33.103Z,6.83
2022-11-20T19:20:00.915Z,6.83
2022-11-20T19:22:28.590Z,6.71
2022-11-20T19:24:55.971Z,6.61
2022-11-20T19:27:23.263Z,6.67
2022-11-20T19:29:50.925Z,6.59
2022-11-20T19:32:18.906Z,6.47
2022-11-20T19:34:46.219Z,6.29
2022-11-20T19:37:13.868Z,6.21
2022-11-20T19:39:41.581Z,6.33
2022-11-20T19:42:08.943Z,6.27
2022-11-20T19:44:36.576Z,6.34
2022-11-20T19:47:09.016Z,6.30
2022-11-20T19:49:41.728Z,6.30
2022-11-20T19:52:09.336Z,6.39
2022-11-20T19:54:36.807Z,6.24
2022-11-20T19:57:04.481Z,6.19
2022-11-20T19:59:31.834Z,6.02
2022-11-20T20:01:59.268Z,5.95
2022-11-20T20:04:27.262Z,6.10
2022-11-20T20:06:54.565Z,6.22
2022-11-20T20:09:23.672Z,6.30
2022-11-20T20:11:51.598Z,6.20
2022-11-20T20:14:19.174Z,6.29
2022-11-20T20:16:46.622Z,6.20
2022-11-20T20:19:15.237Z,6.19
2022-11-20T20:21:42.655Z,5.98
2022-11-20T20:24:10.978Z,5.88
2022-11-20T20:26:38.596Z,5.92
2022-11-20T20:29:05.995Z,5.93
2022-11-20T20:31:33.902Z,5.94
2022-11-20T20:34:03.341Z,5.97
2022-11-20T20:36:31.029Z,5.88
2022-11-20T20:39:04.850Z,6.04
2022-11-20T20:41:32.683Z,5.84
2022-11-20T20:44:19.885Z,5.92
2022-11-20T20:46:47.496Z,6.05
2022-11-20T20:49:14.962Z,6.08
2022-11-20T20:51:42.326Z,6.12
2022-11-20T20:54:09.919Z,6.12
2022-11-20T20:56:38.111Z,6.21
2022-11-20T20:59:06.373Z,6.09
2022-11-20T21:01:34.117Z,6.05
2022-11-20T21:04:01.474Z,6.05
2022-11-20T21:06:29.114Z,6.16
2022-11-20T21:08:58.426Z,6.04
2022-11-20T21:11:25.784Z,6.05
2022-11-20T21:13:53.569Z,5.98
2022-11-20T21:16:22.489Z,5.91
2022-11-20T21:18:50.095Z,5.91
2022-11-20T21:21:36.528Z,5.85
2022-11-20T21:24:04.407Z,5.78
2022-11-20T21:26:31.770Z,5.85
2022-11-20T21:28:59.148Z,5.86
2022-11-20T21:31:27.257Z,5.80
2022-11-20T21:33:55.966Z,5.90
2022-11-20T21:36:28.280Z,5.96
2022-11-20T21:38:56.859Z,5.87
2022-11-20T21:41:26.270Z,5.87
2022-11-20T21:44:29.154Z,5.92
2022-11-20T21:46:44.129Z,5.76
2022-11-20T21:49:12.146Z,5.85
2022-11-20T21:51:39.483Z,5.81
2022-11-20T21:54:07.086Z,5.86
2022-11-20T21:56:34.439Z,5.88
2022-11-20T21:59:01.798Z,5.87
2022-11-20T22:01:30.268Z,5.81
2022-11-20T22:04:00.270Z,5.63
2022-11-20T22:06:32.540Z,5.75
2022-11-20T22:09:01.246Z,5.64
2022-11-20T22:11:28.541Z,5.65
2022-11-20T22:14:14.584Z,5.55
2022-11-20T22:16:42.153Z,5.47
2022-11-20T22:19:09.738Z,5.52
2022-11-20T22:21:38.849Z,5.60
2022-11-20T22:24:06.480Z,5.56
2022-11-20T22:26:39.923Z,5.61
2022-11-20T22:29:18.295Z,5.61
2022-11-20T22:31:45.649Z,5.58
2022-11-20T22:34:14.194Z,5.52
2022-11-20T22:36:41.594Z,5.47
2022-11-20T22:39:09.000Z,5.45
2022-11-20T22:41:36.616Z,5.45
2022-11-20T22:44:05.989Z,5.45
2022-11-20T22:46:35.765Z,5.44
2022-11-20T22:49:10.641Z,5.49
2022-11-20T22:51:39.933Z,5.27
2022-11-20T22:54:09.344Z,5.26
2022-11-20T22:56:36.720Z,5.33
2022-11-20T22:59:04.178Z,5.40
2022-11-20T23:01:34.498Z,5.36
2022-11-20T23:04:04.206Z,5.51
2022-11-20T23:06:34.335Z,5.43
2022-11-20T23:09:05.753Z,5.48
2022-11-20T23:11:33.641Z,5.26
2022-11-20T23:14:26.386Z,5.22
2022-11-20T23:16:55.239Z,5.31
2022-11-20T23:19:22.667Z,5.33
2022-11-20T23:21:50.218Z,5.30
2022-11-20T23:24:17.860Z,5.30
2022-11-20T23:26:47.106Z,5.34
2022-11-20T23:29:14.534Z,5.32
2022-11-20T23:31:42.125Z,5.28
2022-11-20T23:34:09.634Z,5.35
2022-11-20T23:36:36.919Z,5.30
2022-11-20T23:39:04.523Z,5.28
2022-11-20T23:41:31.815Z,5.32
2022-11-20T23:43:59.140Z,5.25
2022-11-20T23:46:26.735Z,5.04
2022-11-20T23:48:54.252Z,5.19
2022-11-20T23:51:21.540Z,5.19
2022-11-20T23:53:49.118Z,5.00
2022-11-20T23:56:16.452Z,5.05
2022-11-20T23:58:44.024Z,5.03
